Volgo-balt 229 — UHZF — position and weather

sailwx.info

Track history (hours):
 
Tides and Currents Weather Stations Pressure Air Temp Water Temp Dewpoint Dewpoint Depression Visibility Wind Speed Wind Dir Waves Ship Positions

Volgo-balt 229

Last reported at 2015-Apr-20 21:07 UTC. Time now 2015-Apr-21 09:53 UTC.
Position N 54°45' E 010°07'.

Length 113 m; draft 3.8 m.

Type: Ship. MMSI: 273336300.

Date/timePositionNaut miles runAvg speedWind from/ knotsBaromVisibWave heightAir tempDewpointWater temp
2015-Apr-20 21:07N 54°45' E 010°07'14 7.4
2015-Apr-20 19:13N 54°38' E 010°29'7 7.0
2015-Apr-20 18:13N 54°35' E 010°39'13 7.7
2015-Apr-20 16:33N 54°36' E 011°01'7 7.2
2015-Apr-20 15:33N 54°35' E 011°14'8 7.7
2015-Apr-20 14:33N 54°32' E 011°26'8 8.3
2015-Apr-20 13:34N 54°28' E 011°39'9 8.9
2015-Apr-20 12:33N 54°27' E 011°54'9 8.8
2015-Apr-20 11:33N 54°28' E 012°09'8 8.0
2015-Apr-20 10:34N 54°35' E 012°13'8 7.9
2015-Apr-20 09:33N 54°41' E 012°23'9 8.2
2015-Apr-20 08:29N 54°45' E 012°36'15 7.9
2015-Apr-20 06:32N 54°51' E 013°01'8 7.8
2015-Apr-20 05:29N 54°54' E 013°14'8 7.6
2015-Apr-20 04:29N 54°56' E 013°27'7 7.6
2015-Apr-20 03:33N 54°56' E 013°39'24 7.1
2015-Apr-20 00:10N 54°56' E 014°21'4 6.9
2015-Apr-19 23:34N 54°56' E 014°28'7 7.0
2015-Apr-19 22:33N 54°57' E 014°40'7 7.1
2015-Apr-19 21:34N 54°56' E 014°53'7 7.1
2015-Apr-19 20:33N 54°57' E 015°05'8 7.2
2015-Apr-19 19:26N 54°58' E 015°19'  
2015-Apr-15 16:33N 55°17' E 014°29'9 7.7
2015-Apr-15 15:24N 55°10' E 014°18'17 7.8
2015-Apr-15 13:10N 55°11' E 013°47'23 7.8
2015-Apr-15 10:14N 55°11' E 013°07'5 7.6
2015-Apr-15 09:33N 55°13' E 012°59'8 7.9
2015-Apr-15 08:32N 55°16' E 012°46'7 6.8
2015-Apr-15 07:33N 55°21' E 012°38'8 7.7
2015-Apr-15 06:33N 55°28' E 012°40'8 7.9
2015-Apr-15 05:33N 55°36' E 012°42'9 8.7
2015-Apr-15 04:33N 55°45' E 012°41'8 8.4
2015-Apr-15 03:33N 55°53' E 012°39'8 8.0
2015-Apr-15 02:33N 56°01' E 012°38'8 8.2
2015-Apr-15 01:33N 56°08' E 012°29'9 9.0
2015-Apr-15 00:33N 56°13' E 012°16'8 7.8
2015-Apr-14 23:32N 56°17' E 012°04'7 7.5
2015-Apr-14 22:33N 56°24' E 011°60'8 7.6
2015-Apr-14 21:31N 56°32' E 011°57'7 7.7
2015-Apr-14 20:33N 56°39' E 011°53'7 7.4
2015-Apr-14 19:33N 56°46' E 011°49'8 8.4
2015-Apr-14 18:33N 56°48' E 011°34'43 8.0
2015-Apr-14 13:12N 56°59' E 010°18'6 7.7
2015-Apr-14 12:26N 57°01' E 010°08'6 6.8
2015-Apr-14 11:33N 57°04' E 009°58'5 5.1
2015-Apr-14 10:32N 57°03' E 009°49'  
Track history (hours):
 
Tides and Currents Weather Stations Pressure Air Temp Water Temp Dewpoint Dewpoint Depression Visibility Wind Speed Wind Dir Waves Ship Positions

Volgo-balt 229

Last reported at 2015-Apr-20 21:07 UTC. Time now 2015-Apr-21 09:53 UTC.
Position N 54°45' E 010°07'.

Length 113 m; draft 3.8 m.

Type: Ship. MMSI: 273336300.

Date/timePositionNaut miles runAvg speedWind from/ knotsBaromVisibWave heightAir tempDewpointWater temp
2015-Apr-20 21:07N 54°45' E 010°07'14 7.4
2015-Apr-20 19:13N 54°38' E 010°29'7 7.0
2015-Apr-20 18:13N 54°35' E 010°39'13 7.7
2015-Apr-20 16:33N 54°36' E 011°01'7 7.2
2015-Apr-20 15:33N 54°35' E 011°14'8 7.7
2015-Apr-20 14:33N 54°32' E 011°26'8 8.3
2015-Apr-20 13:34N 54°28' E 011°39'9 8.9
2015-Apr-20 12:33N 54°27' E 011°54'9 8.8
2015-Apr-20 11:33N 54°28' E 012°09'8 8.0
2015-Apr-20 10:34N 54°35' E 012°13'8 7.9
2015-Apr-20 09:33N 54°41' E 012°23'9 8.2
2015-Apr-20 08:29N 54°45' E 012°36'15 7.9
2015-Apr-20 06:32N 54°51' E 013°01'8 7.8
2015-Apr-20 05:29N 54°54' E 013°14'8 7.6
2015-Apr-20 04:29N 54°56' E 013°27'7 7.6
2015-Apr-20 03:33N 54°56' E 013°39'24 7.1
2015-Apr-20 00:10N 54°56' E 014°21'4 6.9
2015-Apr-19 23:34N 54°56' E 014°28'7 7.0
2015-Apr-19 22:33N 54°57' E 014°40'7 7.1
2015-Apr-19 21:34N 54°56' E 014°53'7 7.1
2015-Apr-19 20:33N 54°57' E 015°05'8 7.2
2015-Apr-19 19:26N 54°58' E 015°19'  
2015-Apr-15 16:33N 55°17' E 014°29'9 7.7
2015-Apr-15 15:24N 55°10' E 014°18'17 7.8
2015-Apr-15 13:10N 55°11' E 013°47'23 7.8
2015-Apr-15 10:14N 55°11' E 013°07'5 7.6
2015-Apr-15 09:33N 55°13' E 012°59'8 7.9
2015-Apr-15 08:32N 55°16' E 012°46'7 6.8
2015-Apr-15 07:33N 55°21' E 012°38'8 7.7
2015-Apr-15 06:33N 55°28' E 012°40'8 7.9
2015-Apr-15 05:33N 55°36' E 012°42'9 8.7
2015-Apr-15 04:33N 55°45' E 012°41'8 8.4
2015-Apr-15 03:33N 55°53' E 012°39'8 8.0
2015-Apr-15 02:33N 56°01' E 012°38'8 8.2
2015-Apr-15 01:33N 56°08' E 012°29'9 9.0
2015-Apr-15 00:33N 56°13' E 012°16'8 7.8
2015-Apr-14 23:32N 56°17' E 012°04'7 7.5
2015-Apr-14 22:33N 56°24' E 011°60'8 7.6
2015-Apr-14 21:31N 56°32' E 011°57'7 7.7
2015-Apr-14 20:33N 56°39' E 011°53'7 7.4
2015-Apr-14 19:33N 56°46' E 011°49'8 8.4
2015-Apr-14 18:33N 56°48' E 011°34'43 8.0
2015-Apr-14 13:12N 56°59' E 010°18'6 7.7
2015-Apr-14 12:26N 57°01' E 010°08'6 6.8
2015-Apr-14 11:33N 57°04' E 009°58'5 5.1
2015-Apr-14 10:32N 57°03' E 009°49'  

Dump ship's entire track history